sensor_id;sensor_type;location;lat;lon;timestamp;pressure;altitude;pressure_sealevel;temperature;humidity
59329;BME280;45100;46.926;7.452;2023-04-08T00:00:55;95469.39;;;5.00;91.04
59329;BME280;45100;46.926;7.452;2023-04-08T00:03:26;95464.69;;;4.97;90.99
59329;BME280;45100;46.926;7.452;2023-04-08T00:05:57;95466.42;;;4.93;91.28
59329;BME280;45100;46.926;7.452;2023-04-08T00:08:28;95467.81;;;4.90;91.47
59329;BME280;45100;46.926;7.452;2023-04-08T00:10:58;95468.05;;;4.83;91.43
59329;BME280;45100;46.926;7.452;2023-04-08T00:13:29;95464.93;;;4.76;91.74
59329;BME280;45100;46.926;7.452;2023-04-08T00:16:00;95469.65;;;4.70;92.09
59329;BME280;45100;46.926;7.452;2023-04-08T00:18:30;95474.00;;;4.64;92.57
59329;BME280;45100;46.926;7.452;2023-04-08T00:21:00;95469.60;;;4.62;93.00
59329;BME280;45100;46.926;7.452;2023-04-08T00:23:31;95468.39;;;4.60;93.26
59329;BME280;45100;46.926;7.452;2023-04-08T00:26:02;95465.14;;;4.59;93.39
59329;BME280;45100;46.926;7.452;2023-04-08T00:28:32;95469.20;;;4.59;93.51
59329;BME280;45100;46.926;7.452;2023-04-08T00:31:03;95468.73;;;4.57;93.30
59329;BME280;45100;46.926;7.452;2023-04-08T00:33:34;95465.94;;;4.54;93.33
59329;BME280;45100;46.926;7.452;2023-04-08T00:36:04;95466.25;;;4.50;93.29
59329;BME280;45100;46.926;7.452;2023-04-08T00:38:35;95463.08;;;4.44;93.50
59329;BME280;45100;46.926;7.452;2023-04-08T00:41:06;95463.10;;;4.38;93.76
59329;BME280;45100;46.926;7.452;2023-04-08T00:43:36;95468.64;;;4.33;94.13
59329;BME280;45100;46.926;7.452;2023-04-08T00:46:08;95472.72;;;4.31;94.51
59329;BME280;45100;46.926;7.452;2023-04-08T00:48:37;95469.72;;;4.29;94.85
59329;BME280;45100;46.926;7.452;2023-04-08T00:51:08;95467.50;;;4.29;95.03
59329;BME280;45100;46.926;7.452;2023-04-08T00:53:39;95468.59;;;4.29;95.18
59329;BME280;45100;46.926;7.452;2023-04-08T00:56:10;95468.76;;;4.29;95.12
59329;BME280;45100;46.926;7.452;2023-04-08T00:58:40;95464.03;;;4.30;95.14
59329;BME280;45100;46.926;7.452;2023-04-08T01:01:24;95464.98;;;4.30;95.18
59329;BME280;45100;46.926;7.452;2023-04-08T01:06:31;95459.62;;;4.30;95.16
59329;BME280;45100;46.926;7.452;2023-04-08T01:08:43;95463.53;;;4.31;95.47
59329;BME280;45100;46.926;7.452;2023-04-08T01:11:13;95465.05;;;4.31;95.15
59329;BME280;45100;46.926;7.452;2023-04-08T01:13:44;95464.80;;;4.28;94.79
59329;BME280;45100;46.926;7.452;2023-04-08T01:16:15;95463.62;;;4.25;94.93
59329;BME280;45100;46.926;7.452;2023-04-08T01:18:45;95463.15;;;4.25;95.38
59329;BME280;45100;46.926;7.452;2023-04-08T01:21:17;95461.82;;;4.24;95.03
59329;BME280;45100;46.926;7.452;2023-04-08T01:24:08;95461.35;;;4.22;94.88
59329;BME280;45100;46.926;7.452;2023-04-08T01:26:21;95459.78;;;4.18;94.81
59329;BME280;45100;46.926;7.452;2023-04-08T01:28:48;95458.88;;;4.14;94.56
59329;BME280;45100;46.926;7.452;2023-04-08T01:31:18;95457.94;;;4.09;94.47
59329;BME280;45100;46.926;7.452;2023-04-08T01:36:23;95460.23;;;3.97;94.76
59329;BME280;45100;46.926;7.452;2023-04-08T01:38:52;95458.91;;;3.94;94.83
59329;BME280;45100;46.926;7.452;2023-04-08T01:41:23;95464.39;;;3.89;94.88
59329;BME280;45100;46.926;7.452;2023-04-08T01:43:54;95461.42;;;3.85;95.08
59329;BME280;45100;46.926;7.452;2023-04-08T01:46:24;95454.91;;;3.81;95.70
59329;BME280;45100;46.926;7.452;2023-04-08T01:48:54;95456.07;;;3.79;96.00
59329;BME280;45100;46.926;7.452;2023-04-08T01:51:27;95458.61;;;3.80;96.01
59329;BME280;45100;46.926;7.452;2023-04-08T01:53:55;95458.98;;;3.81;96.01
59329;BME280;45100;46.926;7.452;2023-04-08T01:56:28;95456.91;;;3.81;95.62
59329;BME280;45100;46.926;7.452;2023-04-08T01:58:59;95453.67;;;3.79;95.28
59329;BME280;45100;46.926;7.452;2023-04-08T02:01:28;95453.95;;;3.76;95.21
59329;BME280;45100;46.926;7.452;2023-04-08T02:03:58;95456.47;;;3.74;95.68
59329;BME280;45100;46.926;7.452;2023-04-08T02:06:29;95458.05;;;3.75;96.12
59329;BME280;45100;46.926;7.452;2023-04-08T02:08:58;95463.02;;;3.77;96.16
59329;BME280;45100;46.926;7.452;2023-04-08T02:11:29;95461.70;;;3.78;96.09
59329;BME280;45100;46.926;7.452;2023-04-08T02:16:41;95462.88;;;3.81;95.69
59329;BME280;45100;46.926;7.452;2023-04-08T02:19:08;95463.27;;;3.79;95.62
59329;BME280;45100;46.926;7.452;2023-04-08T02:21:37;95466.41;;;3.79;96.14
59329;BME280;45100;46.926;7.452;2023-04-08T02:24:04;95469.11;;;3.81;96.25
59329;BME280;45100;46.926;7.452;2023-04-08T02:26:35;95468.60;;;3.83;95.98
59329;BME280;45100;46.926;7.452;2023-04-08T02:29:04;95468.28;;;3.83;95.58
59329;BME280;45100;46.926;7.452;2023-04-08T02:34:09;95458.19;;;3.78;95.36
59329;BME280;45100;46.926;7.452;2023-04-08T02:36:39;95456.54;;;3.77;95.65
59329;BME280;45100;46.926;7.452;2023-04-08T02:39:07;95461.61;;;3.74;95.17
59329;BME280;45100;46.926;7.452;2023-04-08T02:41:38;95454.17;;;3.69;94.87
59329;BME280;45100;46.926;7.452;2023-04-08T02:44:09;95454.39;;;3.64;94.90
59329;BME280;45100;46.926;7.452;2023-04-08T02:46:39;95460.78;;;3.59;94.85
59329;BME280;45100;46.926;7.452;2023-04-08T02:49:10;95460.95;;;3.53;95.16
59329;BME280;45100;46.926;7.452;2023-04-08T02:51:41;95463.11;;;3.51;95.77
59329;BME280;45100;46.926;7.452;2023-04-08T02:56:45;95466.20;;;3.54;96.30
59329;BME280;45100;46.926;7.452;2023-04-08T02:59:15;95465.42;;;3.56;96.27
59329;BME280;45100;46.926;7.452;2023-04-08T03:01:46;95463.95;;;3.58;96.06
59329;BME280;45100;46.926;7.452;2023-04-08T03:04:16;95463.02;;;3.57;95.63
59329;BME280;45100;46.926;7.452;2023-04-08T03:06:47;95460.99;;;3.52;95.29
59329;BME280;45100;46.926;7.452;2023-04-08T03:09:18;95461.98;;;3.46;95.43
59329;BME280;45100;46.926;7.452;2023-04-08T03:11:54;95469.36;;;3.42;95.59
59329;BME280;45100;46.926;7.452;2023-04-08T03:14:20;95475.40;;;3.38;95.79
59329;BME280;45100;46.926;7.452;2023-04-08T03:19:24;95477.89;;;3.32;96.09
59329;BME280;45100;46.926;7.452;2023-04-08T03:21:53;95476.54;;;3.29;96.00
59329;BME280;45100;46.926;7.452;2023-04-08T03:24:24;95477.55;;;3.24;95.95
59329;BME280;45100;46.926;7.452;2023-04-08T03:26:55;95477.66;;;3.18;95.78
59329;BME280;45100;46.926;7.452;2023-04-08T03:29:26;95477.04;;;3.09;96.05
59329;BME280;45100;46.926;7.452;2023-04-08T03:31:56;95480.48;;;3.02;96.29
59329;BME280;45100;46.926;7.452;2023-04-08T03:34:27;95479.76;;;2.94;96.67
59329;BME280;45100;46.926;7.452;2023-04-08T03:36:58;95486.91;;;2.89;97.09
59329;BME280;45100;46.926;7.452;2023-04-08T03:39:29;95488.86;;;2.85;97.49
59329;BME280;45100;46.926;7.452;2023-04-08T03:42:01;95489.94;;;2.84;97.93
59329;BME280;45100;46.926;7.452;2023-04-08T03:44:29;95493.05;;;2.87;98.38
59329;BME280;45100;46.926;7.452;2023-04-08T03:47:00;95488.57;;;2.91;98.35
59329;BME280;45100;46.926;7.452;2023-04-08T03:49:31;95482.62;;;2.92;98.06
59329;BME280;45100;46.926;7.452;2023-04-08T03:52:02;95486.86;;;2.91;97.70
59329;BME280;45100;46.926;7.452;2023-04-08T03:54:33;95486.16;;;2.88;97.73
59329;BME280;45100;46.926;7.452;2023-04-08T03:59:39;95484.28;;;2.83;98.12
59329;BME280;45100;46.926;7.452;2023-04-08T04:02:07;95484.80;;;2.82;98.44
59329;BME280;45100;46.926;7.452;2023-04-08T04:04:38;95486.60;;;2.83;98.49
59329;BME280;45100;46.926;7.452;2023-04-08T04:07:08;95481.72;;;2.83;98.61
59329;BME280;45100;46.926;7.452;2023-04-08T04:09:38;95486.02;;;2.84;98.85
59329;BME280;45100;46.926;7.452;2023-04-08T04:12:09;95490.81;;;2.87;98.83
59329;BME280;45100;46.926;7.452;2023-04-08T04:14:40;95484.85;;;2.86;98.66
59329;BME280;45100;46.926;7.452;2023-04-08T04:17:11;95490.55;;;2.85;98.52
59329;BME280;45100;46.926;7.452;2023-04-08T04:19:42;95491.84;;;2.82;98.18
59329;BME280;45100;46.926;7.452;2023-04-08T04:22:11;95494.66;;;2.77;98.07
59329;BME280;45100;46.926;7.452;2023-04-08T04:24:45;95499.17;;;2.73;98.07
59329;BME280;45100;46.926;7.452;2023-04-08T04:27:13;95500.09;;;2.68;98.07
59329;BME280;45100;46.926;7.452;2023-04-08T04:29:44;95500.44;;;2.61;98.14
59329;BME280;45100;46.926;7.452;2023-04-08T04:32:15;95505.77;;;2.55;98.45
59329;BME280;45100;46.926;7.452;2023-04-08T04:34:45;95504.36;;;2.51;98.69
59329;BME280;45100;46.926;7.452;2023-04-08T04:37:16;95503.33;;;2.48;98.97
59329;BME280;45100;46.926;7.452;2023-04-08T04:39:47;95511.58;;;2.47;99.12
59329;BME280;45100;46.926;7.452;2023-04-08T04:42:17;95518.56;;;2.45;99.32
59329;BME280;45100;46.926;7.452;2023-04-08T04:44:49;95519.62;;;2.44;99.34
59329;BME280;45100;46.926;7.452;2023-04-08T04:47:19;95518.94;;;2.43;99.56
59329;BME280;45100;46.926;7.452;2023-04-08T04:52:22;95526.69;;;2.49;100.00
59329;BME280;45100;46.926;7.452;2023-04-08T04:54:52;95526.64;;;2.53;100.00
59329;BME280;45100;46.926;7.452;2023-04-08T04:57:23;95525.66;;;2.57;99.96
59329;BME280;45100;46.926;7.452;2023-04-08T04:59:54;95527.08;;;2.61;99.49
59329;BME280;45100;46.926;7.452;2023-04-08T05:02:25;95521.39;;;2.62;99.00
59329;BME280;45100;46.926;7.452;2023-04-08T05:04:55;95523.18;;;2.61;98.62
59329;BME280;45100;46.926;7.452;2023-04-08T05:07:26;95521.28;;;2.58;98.45
59329;BME280;45100;46.926;7.452;2023-04-08T05:09:57;95521.17;;;2.55;98.41
59329;BME280;45100;46.926;7.452;2023-04-08T05:12:28;95523.05;;;2.53;98.57
59329;BME280;45100;46.926;7.452;2023-04-08T05:15:01;95528.86;;;2.51;98.83
59329;BME280;45100;46.926;7.452;2023-04-08T05:17:29;95536.38;;;2.50;98.72
59329;BME280;45100;46.926;7.452;2023-04-08T05:20:01;95536.81;;;2.46;98.63
59329;BME280;45100;46.926;7.452;2023-04-08T05:22:31;95541.83;;;2.43;98.85
59329;BME280;45100;46.926;7.452;2023-04-08T05:25:01;95539.97;;;2.40;99.10
59329;BME280;45100;46.926;7.452;2023-04-08T05:27:32;95540.31;;;2.38;99.40
59329;BME280;45100;46.926;7.452;2023-04-08T05:30:04;95541.98;;;2.39;99.69
59329;BME280;45100;46.926;7.452;2023-04-08T05:32:33;95542.30;;;2.42;100.00
59329;BME280;45100;46.926;7.452;2023-04-08T05:35:04;95548.79;;;2.45;100.00
59329;BME280;45100;46.926;7.452;2023-04-08T05:37:34;95547.98;;;2.51;100.00
59329;BME280;45100;46.926;7.452;2023-04-08T05:42:38;95551.36;;;2.63;100.00
59329;BME280;45100;46.926;7.452;2023-04-08T05:45:08;95553.27;;;2.67;99.47
59329;BME280;45100;46.926;7.452;2023-04-08T05:47:38;95555.27;;;2.69;99.15
59329;BME280;45100;46.926;7.452;2023-04-08T05:50:09;95550.86;;;2.70;98.79
59329;BME280;45100;46.926;7.452;2023-04-08T05:52:43;95556.61;;;2.70;98.36
59329;BME280;45100;46.926;7.452;2023-04-08T05:55:11;95554.84;;;2.67;97.83
59329;BME280;45100;46.926;7.452;2023-04-08T05:57:41;95554.55;;;2.63;97.92
59329;BME280;45100;46.926;7.452;2023-04-08T06:00:11;95555.30;;;2.62;98.21
59329;BME280;45100;46.926;7.452;2023-04-08T06:02:41;95559.45;;;2.62;98.52
59329;BME280;45100;46.926;7.452;2023-04-08T06:05:12;95563.94;;;2.64;98.66
59329;BME280;45100;46.926;7.452;2023-04-08T06:07:42;95566.09;;;2.67;98.64
59329;BME280;45100;46.926;7.452;2023-04-08T06:10:13;95568.28;;;2.72;98.71
59329;BME280;45100;46.926;7.452;2023-04-08T06:12:44;95575.66;;;2.80;98.52
59329;BME280;45100;46.926;7.452;2023-04-08T06:15:16;95582.73;;;2.87;97.96
59329;BME280;45100;46.926;7.452;2023-04-08T06:17:45;95580.80;;;2.94;97.67
59329;BME280;45100;46.926;7.452;2023-04-08T06:20:16;95582.98;;;3.05;97.40
59329;BME280;45100;46.926;7.452;2023-04-08T06:22:47;95580.64;;;3.18;97.44
59329;BME280;45100;46.926;7.452;2023-04-08T06:25:18;95581.59;;;3.32;96.97
59329;BME280;45100;46.926;7.452;2023-04-08T06:27:48;95575.27;;;3.42;95.79
59329;BME280;45100;46.926;7.452;2023-04-08T06:30:19;95580.05;;;3.48;95.37
59329;BME280;45100;46.926;7.452;2023-04-08T06:32:50;95579.25;;;3.56;95.01
59329;BME280;45100;46.926;7.452;2023-04-08T06:35:21;95581.62;;;3.63;94.54
59329;BME280;45100;46.926;7.452;2023-04-08T06:37:51;95582.20;;;3.73;94.53
59329;BME280;45100;46.926;7.452;2023-04-08T06:40:21;95579.50;;;3.86;94.24
59329;BME280;45100;46.926;7.452;2023-04-08T06:42:53;95578.47;;;4.01;94.04
59329;BME280;45100;46.926;7.452;2023-04-08T06:45:23;95576.86;;;4.20;93.49
59329;BME280;45100;46.926;7.452;2023-04-08T06:47:56;95577.73;;;4.38;93.19
59329;BME280;45100;46.926;7.452;2023-04-08T06:50:25;95577.31;;;4.59;92.70
59329;BME280;45100;46.926;7.452;2023-04-08T06:55:29;95573.66;;;4.90;90.85
59329;BME280;45100;46.926;7.452;2023-04-08T06:57:58;95572.28;;;4.99;90.70
59329;BME280;45100;46.926;7.452;2023-04-08T07:00:30;95576.38;;;5.09;90.46
59329;BME280;45100;46.926;7.452;2023-04-08T07:02:59;95577.80;;;5.20;90.06
59329;BME280;45100;46.926;7.452;2023-04-08T07:05:31;95576.52;;;5.27;88.59
59329;BME280;45100;46.926;7.452;2023-04-08T07:08:01;95574.09;;;5.28;88.41
59329;BME280;45100;46.926;7.452;2023-04-08T07:10:31;95572.07;;;5.26;88.57
59329;BME280;45100;46.926;7.452;2023-04-08T07:13:03;95567.77;;;5.24;87.94
59329;BME280;45100;46.926;7.452;2023-04-08T07:15:33;95563.94;;;5.21;88.18
59329;BME280;45100;46.926;7.452;2023-04-08T07:18:05;95561.69;;;5.20;89.18
59329;BME280;45100;46.926;7.452;2023-04-08T07:20:38;95566.73;;;5.23;89.57
59329;BME280;45100;46.926;7.452;2023-04-08T07:23:05;95566.45;;;5.27;89.06
59329;BME280;45100;46.926;7.452;2023-04-08T07:28:09;95571.70;;;5.39;88.14
59329;BME280;45100;46.926;7.452;2023-04-08T07:30:39;95574.85;;;5.47;87.90
59329;BME280;45100;46.926;7.452;2023-04-08T07:33:10;95575.88;;;5.55;87.66
59329;BME280;45100;46.926;7.452;2023-04-08T07:35:42;95579.62;;;5.59;87.72
59329;BME280;45100;46.926;7.452;2023-04-08T07:40:46;95586.71;;;5.67;87.57
59329;BME280;45100;46.926;7.452;2023-04-08T07:43:16;95583.25;;;5.71;87.38
59329;BME280;45100;46.926;7.452;2023-04-08T07:45:46;95582.94;;;5.74;85.35
59329;BME280;45100;46.926;7.452;2023-04-08T07:48:17;95585.32;;;5.79;85.44
59329;BME280;45100;46.926;7.452;2023-04-08T07:50:48;95589.78;;;5.83;85.15
59329;BME280;45100;46.926;7.452;2023-04-08T07:53:19;95592.28;;;5.90;84.59
59329;BME280;45100;46.926;7.452;2023-04-08T07:55:50;95593.53;;;5.96;84.39
59329;BME280;45100;46.926;7.452;2023-04-08T07:58:20;95594.92;;;6.04;84.06
59329;BME280;45100;46.926;7.452;2023-04-08T08:00:51;95593.10;;;6.11;83.45
59329;BME280;45100;46.926;7.452;2023-04-08T08:03:21;95595.98;;;6.20;82.91
59329;BME280;45100;46.926;7.452;2023-04-08T08:05:52;95597.89;;;6.28;83.17
59329;BME280;45100;46.926;7.452;2023-04-08T08:08:23;95605.20;;;6.37;82.16
59329;BME280;45100;46.926;7.452;2023-04-08T08:10:54;95606.61;;;6.42;81.01
59329;BME280;45100;46.926;7.452;2023-04-08T08:13:24;95602.70;;;6.47;81.78
59329;BME280;45100;46.926;7.452;2023-04-08T08:15:55;95600.70;;;6.51;80.91
59329;BME280;45100;46.926;7.452;2023-04-08T08:18:26;95598.45;;;6.57;82.43
59329;BME280;45100;46.926;7.452;2023-04-08T08:20:56;95601.84;;;6.67;82.07
59329;BME280;45100;46.926;7.452;2023-04-08T08:23:28;95598.88;;;6.79;82.04
59329;BME280;45100;46.926;7.452;2023-04-08T08:26:06;95602.55;;;6.91;81.02
59329;BME280;45100;46.926;7.452;2023-04-08T08:28:28;95604.64;;;7.04;80.00
59329;BME280;45100;46.926;7.452;2023-04-08T08:30:59;95604.37;;;7.15;78.43
59329;BME280;45100;46.926;7.452;2023-04-08T08:33:30;95599.77;;;7.23;78.76
59329;BME280;45100;46.926;7.452;2023-04-08T08:36:00;95601.34;;;7.34;77.14
59329;BME280;45100;46.926;7.452;2023-04-08T08:38:31;95607.85;;;7.50;77.29
59329;BME280;45100;46.926;7.452;2023-04-08T08:41:01;95608.60;;;7.66;77.22
59329;BME280;45100;46.926;7.452;2023-04-08T08:43:33;95607.86;;;7.86;77.35
59329;BME280;45100;46.926;7.452;2023-04-08T08:46:01;95605.53;;;8.08;75.35
59329;BME280;45100;46.926;7.452;2023-04-08T08:48:33;95608.50;;;8.34;74.72
59329;BME280;45100;46.926;7.452;2023-04-08T08:51:09;95603.88;;;8.64;73.68
59329;BME280;45100;46.926;7.452;2023-04-08T08:53:33;95608.61;;;8.93;71.45
59329;BME280;45100;46.926;7.452;2023-04-08T08:58:38;95600.48;;;9.34;70.20
59329;BME280;45100;46.926;7.452;2023-04-08T09:01:28;95605.80;;;9.50;70.17
59329;BME280;45100;46.926;7.452;2023-04-08T09:03:38;95604.43;;;9.64;69.63
59329;BME280;45100;46.926;7.452;2023-04-08T09:06:08;95606.69;;;9.70;67.56
59329;BME280;45100;46.926;7.452;2023-04-08T09:08:40;95603.56;;;9.76;68.48
59329;BME280;45100;46.926;7.452;2023-04-08T09:11:12;95596.62;;;9.89;68.93
59329;BME280;45100;46.926;7.452;2023-04-08T09:13:41;95594.97;;;10.01;68.67
59329;BME280;45100;46.926;7.452;2023-04-08T09:16:12;95601.95;;;10.14;67.85
59329;BME280;45100;46.926;7.452;2023-04-08T09:18:45;95602.22;;;10.28;67.53
59329;BME280;45100;46.926;7.452;2023-04-08T09:21:13;95600.77;;;10.44;67.31
59329;BME280;45100;46.926;7.452;2023-04-08T09:23:49;95601.23;;;10.60;66.97
59329;BME280;45100;46.926;7.452;2023-04-08T09:26:16;95605.68;;;10.75;65.31
59329;BME280;45100;46.926;7.452;2023-04-08T09:28:56;95612.64;;;10.82;61.85
59329;BME280;45100;46.926;7.452;2023-04-08T09:31:22;95607.34;;;10.73;60.46
59329;BME280;45100;46.926;7.452;2023-04-08T09:33:45;95604.16;;;10.55;61.93
59329;BME280;45100;46.926;7.452;2023-04-08T09:36:17;95602.27;;;10.40;64.02
59329;BME280;45100;46.926;7.452;2023-04-08T09:38:46;95602.12;;;10.28;62.97
59329;BME280;45100;46.926;7.452;2023-04-08T09:41:18;95601.98;;;10.17;60.77
59329;BME280;45100;46.926;7.452;2023-04-08T09:43:55;95600.97;;;10.06;61.47
59329;BME280;45100;46.926;7.452;2023-04-08T09:46:32;95597.48;;;9.98;62.06
59329;BME280;45100;46.926;7.452;2023-04-08T09:48:49;95598.30;;;9.98;62.80
59329;BME280;45100;46.926;7.452;2023-04-08T09:51:22;95596.86;;;10.15;63.99
59329;BME280;45100;46.926;7.452;2023-04-08T09:53:58;95594.31;;;10.41;64.06
59329;BME280;45100;46.926;7.452;2023-04-08T09:59:02;95597.20;;;10.79;58.87
59329;BME280;45100;46.926;7.452;2023-04-08T10:01:31;95595.87;;;10.88;59.48
59329;BME280;45100;46.926;7.452;2023-04-08T10:03:54;95596.39;;;11.00;60.32
59329;BME280;45100;46.926;7.452;2023-04-08T10:06:27;95596.21;;;11.10;57.61
59329;BME280;45100;46.926;7.452;2023-04-08T10:08:55;95605.84;;;11.10;58.95
59329;BME280;45100;46.926;7.452;2023-04-08T10:11:25;95600.12;;;11.06;57.75
59329;BME280;45100;46.926;7.452;2023-04-08T10:13:55;95605.73;;;11.01;57.71
59329;BME280;45100;46.926;7.452;2023-04-08T10:16:27;95599.17;;;11.00;58.09
59329;BME280;45100;46.926;7.452;2023-04-08T10:18:56;95593.82;;;10.97;58.57
59329;BME280;45100;46.926;7.452;2023-04-08T10:21:30;95598.84;;;10.93;57.46
59329;BME280;45100;46.926;7.452;2023-04-08T10:24:00;95597.70;;;10.80;57.24
59329;BME280;45100;46.926;7.452;2023-04-08T10:26:31;95597.95;;;10.66;57.40
59329;BME280;45100;46.926;7.452;2023-04-08T10:31:27;95604.23;;;10.51;57.17
59329;BME280;45100;46.926;7.452;2023-04-08T10:34:14;95598.69;;;10.46;57.79
59329;BME280;45100;46.926;7.452;2023-04-08T10:36:29;95589.15;;;10.39;57.56
59329;BME280;45100;46.926;7.452;2023-04-08T10:38:59;95587.95;;;10.38;59.02
59329;BME280;45100;46.926;7.452;2023-04-08T10:41:30;95586.47;;;10.48;60.16
59329;BME280;45100;46.926;7.452;2023-04-08T10:44:03;95594.02;;;10.65;57.30
59329;BME280;45100;46.926;7.452;2023-04-08T10:46:36;95583.83;;;10.82;55.65
59329;BME280;45100;46.926;7.452;2023-04-08T10:49:02;95585.67;;;11.04;55.45
59329;BME280;45100;46.926;7.452;2023-04-08T10:51:34;95580.73;;;11.15;54.71
59329;BME280;45100;46.926;7.452;2023-04-08T10:54:07;95589.41;;;11.14;55.74
59329;BME280;45100;46.926;7.452;2023-04-08T11:01:44;95586.74;;;11.15;55.14
59329;BME280;45100;46.926;7.452;2023-04-08T11:04:12;95581.50;;;11.09;55.51
59329;BME280;45100;46.926;7.452;2023-04-08T11:06:41;95585.64;;;11.03;54.86
59329;BME280;45100;46.926;7.452;2023-04-08T11:09:10;95587.87;;;10.98;54.16
59329;BME280;45100;46.926;7.452;2023-04-08T11:14:15;95580.88;;;10.83;54.47
59329;BME280;45100;46.926;7.452;2023-04-08T11:16:43;95587.61;;;10.83;54.84
59329;BME280;45100;46.926;7.452;2023-04-08T11:21:50;95577.33;;;10.83;56.82
59329;BME280;45100;46.926;7.452;2023-04-08T11:24:18;95581.31;;;10.88;57.24
59329;BME280;45100;46.926;7.452;2023-04-08T11:26:49;95584.92;;;10.92;54.13
59329;BME280;45100;46.926;7.452;2023-04-08T11:29:19;95577.12;;;10.94;56.32
59329;BME280;45100;46.926;7.452;2023-04-08T11:31:51;95579.12;;;10.98;54.45
59329;BME280;45100;46.926;7.452;2023-04-08T11:34:23;95574.76;;;11.01;55.25
59329;BME280;45100;46.926;7.452;2023-04-08T11:36:51;95582.36;;;11.00;54.65
59329;BME280;45100;46.926;7.452;2023-04-08T11:39:23;95580.09;;;10.94;55.07
59329;BME280;45100;46.926;7.452;2023-04-08T11:41:51;95577.77;;;10.93;55.23
59329;BME280;45100;46.926;7.452;2023-04-08T11:44:31;95576.05;;;10.88;54.65
59329;BME280;45100;46.926;7.452;2023-04-08T11:46:58;95582.75;;;10.86;55.36
59329;BME280;45100;46.926;7.452;2023-04-08T11:51:57;95577.53;;;10.88;53.75
59329;BME280;45100;46.926;7.452;2023-04-08T11:54:31;95575.55;;;10.92;53.10
59329;BME280;45100;46.926;7.452;2023-04-08T11:56:58;95569.50;;;10.97;52.84
59329;BME280;45100;46.926;7.452;2023-04-08T11:59:27;95572.56;;;11.06;52.34
59329;BME280;45100;46.926;7.452;2023-04-08T12:01:58;95573.41;;;11.16;52.75
59329;BME280;45100;46.926;7.452;2023-04-08T12:04:28;95569.32;;;11.29;51.04
59329;BME280;45100;46.926;7.452;2023-04-08T12:06:58;95565.60;;;11.39;50.15
59329;BME280;45100;46.926;7.452;2023-04-08T12:09:29;95565.35;;;11.47;50.58
59329;BME280;45100;46.926;7.452;2023-04-08T12:12:01;95569.47;;;11.60;50.87
59329;BME280;45100;46.926;7.452;2023-04-08T12:14:30;95575.77;;;11.75;50.57
59329;BME280;45100;46.926;7.452;2023-04-08T12:17:00;95572.59;;;11.79;50.25
59329;BME280;45100;46.926;7.452;2023-04-08T12:19:31;95573.02;;;11.78;50.69
59329;BME280;45100;46.926;7.452;2023-04-08T12:22:03;95573.56;;;11.86;48.78
59329;BME280;45100;46.926;7.452;2023-04-08T12:24:33;95565.97;;;11.99;48.58
59329;BME280;45100;46.926;7.452;2023-04-08T12:27:04;95562.20;;;12.07;47.68
59329;BME280;45100;46.926;7.452;2023-04-08T12:29:33;95558.12;;;12.13;49.10
59329;BME280;45100;46.926;7.452;2023-04-08T12:32:05;95553.34;;;12.18;49.21
59329;BME280;45100;46.926;7.452;2023-04-08T12:34:34;95553.00;;;12.24;48.75
59329;BME280;45100;46.926;7.452;2023-04-08T12:37:04;95550.32;;;12.32;48.63
59329;BME280;45100;46.926;7.452;2023-04-08T12:39:35;95555.38;;;12.44;48.64
59329;BME280;45100;46.926;7.452;2023-04-08T12:42:06;95554.09;;;12.57;46.72
59329;BME280;45100;46.926;7.452;2023-04-08T12:44:36;95554.55;;;12.68;46.65
59329;BME280;45100;46.926;7.452;2023-04-08T12:47:07;95546.02;;;12.71;45.88
59329;BME280;45100;46.926;7.452;2023-04-08T12:49:38;95547.78;;;12.65;45.24
59329;BME280;45100;46.926;7.452;2023-04-08T12:52:08;95550.16;;;12.58;46.37
59329;BME280;45100;46.926;7.452;2023-04-08T12:54:38;95547.16;;;12.54;46.25
59329;BME280;45100;46.926;7.452;2023-04-08T12:57:09;95555.91;;;12.54;46.49
59329;BME280;45100;46.926;7.452;2023-04-08T12:59:39;95556.91;;;12.46;46.56
59329;BME280;45100;46.926;7.452;2023-04-08T13:02:10;95559.71;;;12.29;46.16
59329;BME280;45100;46.926;7.452;2023-04-08T13:04:41;95552.94;;;12.17;46.82
59329;BME280;45100;46.926;7.452;2023-04-08T13:07:11;95554.25;;;12.11;46.79
59329;BME280;45100;46.926;7.452;2023-04-08T13:09:42;95557.17;;;12.11;46.77
59329;BME280;45100;46.926;7.452;2023-04-08T13:12:13;95558.64;;;12.10;46.44
59329;BME280;45100;46.926;7.452;2023-04-08T13:14:43;95543.41;;;12.14;48.31
59329;BME280;45100;46.926;7.452;2023-04-08T13:17:14;95548.29;;;12.34;47.72
59329;BME280;45100;46.926;7.452;2023-04-08T13:19:44;95544.66;;;12.52;46.56
59329;BME280;45100;46.926;7.452;2023-04-08T13:22:15;95535.52;;;12.59;45.68
59329;BME280;45100;46.926;7.452;2023-04-08T13:24:46;95539.12;;;12.62;45.38
59329;BME280;45100;46.926;7.452;2023-04-08T13:27:17;95536.23;;;12.66;44.32
59329;BME280;45100;46.926;7.452;2023-04-08T13:29:47;95534.12;;;12.66;45.89
59329;BME280;45100;46.926;7.452;2023-04-08T13:32:18;95536.67;;;12.66;46.49
59329;BME280;45100;46.926;7.452;2023-04-08T13:34:48;95537.51;;;12.56;45.33
59329;BME280;45100;46.926;7.452;2023-04-08T13:37:19;95540.00;;;12.42;46.89
59329;BME280;45100;46.926;7.452;2023-04-08T13:39:50;95540.20;;;12.30;47.76
59329;BME280;45100;46.926;7.452;2023-04-08T13:42:21;95543.11;;;12.24;49.43
59329;BME280;45100;46.926;7.452;2023-04-08T13:44:51;95536.31;;;12.17;48.03
59329;BME280;45100;46.926;7.452;2023-04-08T13:47:22;95538.20;;;12.10;48.45
59329;BME280;45100;46.926;7.452;2023-04-08T13:49:53;95537.11;;;12.02;48.83
59329;BME280;45100;46.926;7.452;2023-04-08T13:52:22;95542.64;;;11.93;49.70
59329;BME280;45100;46.926;7.452;2023-04-08T13:54:53;95539.20;;;11.84;49.46
59329;BME280;45100;46.926;7.452;2023-04-08T13:57:23;95547.54;;;11.74;50.36
59329;BME280;45100;46.926;7.452;2023-04-08T13:59:54;95544.72;;;11.62;51.75
59329;BME280;45100;46.926;7.452;2023-04-08T14:02:25;95546.01;;;11.50;52.43
59329;BME280;45100;46.926;7.452;2023-04-08T14:04:56;95547.45;;;11.39;53.17
59329;BME280;45100;46.926;7.452;2023-04-08T14:07:25;95546.62;;;11.31;54.14
59329;BME280;45100;46.926;7.452;2023-04-08T14:09:56;95549.33;;;11.24;54.27
59329;BME280;45100;46.926;7.452;2023-04-08T14:12:27;95544.00;;;11.23;54.72
59329;BME280;45100;46.926;7.452;2023-04-08T14:14:57;95547.23;;;11.33;55.12